createdAt,value
2023-04-09T00:00:52.739Z,89.0449
2023-04-09T00:01:53.110Z,89.0031
2023-04-09T00:02:53.748Z,89.4435
2023-04-09T00:03:54.342Z,89.0227
2023-04-09T00:04:54.668Z,89.4104
2023-04-09T00:05:55.010Z,89.4893
2023-04-09T00:06:55.347Z,89.4943
2023-04-09T00:07:55.687Z,89.6787
2023-04-09T00:08:56.024Z,90.4875
2023-04-09T00:09:56.341Z,90.1933
2023-04-09T00:10:56.713Z,90.4316
2023-04-09T00:11:57.163Z,90.5154
2023-04-09T00:12:57.567Z,90.4696
2023-04-09T00:13:57.908Z,90.0939
2023-04-09T00:14:58.259Z,90.2008
2023-04-09T00:15:58.617Z,90.1177
2023-04-09T00:16:58.964Z,90.2196
2023-04-09T00:17:59.747Z,90.1962
2023-04-09T00:19:00.140Z,89.9442
2023-04-09T00:20:00.516Z,90.0293
2023-04-09T00:21:00.822Z,90.3170
2023-04-09T00:22:01.207Z,90.1452
2023-04-09T00:23:01.590Z,90.0141
2023-04-09T00:24:02.033Z,89.8239
2023-04-09T00:25:02.440Z,89.7940
2023-04-09T00:26:02.837Z,89.6442
2023-04-09T00:27:03.237Z,90.0727
2023-04-09T00:28:03.596Z,89.9945
2023-04-09T00:29:03.982Z,89.9457
2023-04-09T00:30:04.383Z,89.8206
2023-04-09T00:31:04.737Z,89.7514
2023-04-09T00:32:05.236Z,90.2529
2023-04-09T00:33:05.734Z,90.4557
2023-04-09T00:34:06.007Z,90.3110
2023-04-09T00:35:06.411Z,90.3884
2023-04-09T00:36:06.764Z,90.1741
2023-04-09T00:37:07.116Z,90.2362
2023-04-09T00:38:07.580Z,90.2366
2023-04-09T00:39:07.918Z,90.3129
2023-04-09T00:40:08.319Z,90.6293
2023-04-09T00:41:08.699Z,90.4883
2023-04-09T00:42:09.098Z,90.1943
2023-04-09T00:43:09.480Z,90.0703
2023-04-09T00:44:09.818Z,90.6879
2023-04-09T00:45:10.218Z,90.5223
2023-04-09T00:46:10.696Z,90.3919
2023-04-09T00:47:11.077Z,90.6737
2023-04-09T00:48:11.500Z,90.7782
2023-04-09T00:49:11.849Z,90.7610
2023-04-09T00:50:12.260Z,90.6026
2023-04-09T00:51:12.646Z,90.6514
2023-04-09T00:52:13.047Z,90.8525
2023-04-09T00:53:13.423Z,90.7342
2023-04-09T00:54:13.880Z,90.8327
2023-04-09T00:55:14.226Z,90.6940
2023-04-09T00:56:14.662Z,91.0199
2023-04-09T00:57:15.045Z,91.1711
2023-04-09T00:58:15.386Z,91.1973
2023-04-09T00:59:15.805Z,91.0746
2023-04-09T01:00:16.154Z,91.1813
2023-04-09T01:01:16.626Z,91.1178
2023-04-09T01:02:17.132Z,90.9697
2023-04-09T01:03:17.716Z,91.1170
2023-04-09T01:04:18.117Z,91.0908
2023-04-09T01:05:18.509Z,91.2581
2023-04-09T01:06:18.909Z,91.0989
2023-04-09T01:07:19.304Z,91.0224
2023-04-09T01:08:19.654Z,91.0430
2023-04-09T01:09:20.031Z,90.6700
2023-04-09T01:10:20.385Z,90.3730
2023-04-09T01:11:20.757Z,90.6445
2023-04-09T01:12:21.208Z,90.7302
2023-04-09T01:13:21.608Z,90.7179
2023-04-09T01:14:22.075Z,91.0728
2023-04-09T01:15:22.490Z,91.0491
2023-04-09T01:16:22.945Z,90.7166
2023-04-09T01:17:23.348Z,90.6445
2023-04-09T01:18:23.775Z,90.6102
2023-04-09T01:19:24.171Z,90.4700
2023-04-09T01:20:24.530Z,90.2970
2023-04-09T01:21:24.906Z,90.2182
2023-04-09T01:22:25.360Z,90.0933
2023-04-09T01:23:25.745Z,90.1634
2023-04-09T01:24:26.215Z,90.2036
2023-04-09T01:25:26.664Z,89.8551
2023-04-09T01:26:26.984Z,90.2137
2023-04-09T01:27:27.388Z,90.5334
2023-04-09T01:28:27.832Z,90.4921
2023-04-09T01:29:28.300Z,90.4501
2023-04-09T01:30:28.749Z,90.6730
2023-04-09T01:31:29.127Z,90.3383
2023-04-09T01:32:29.702Z,90.1813
2023-04-09T01:33:30.084Z,90.4694
2023-04-09T01:34:30.434Z,90.6348
2023-04-09T01:35:30.924Z,90.6601
2023-04-09T01:36:31.333Z,90.4608
2023-04-09T01:37:31.780Z,90.7087
2023-04-09T01:38:32.252Z,90.5551
2023-04-09T01:39:32.608Z,90.4015
2023-04-09T01:40:33.024Z,90.7212
2023-04-09T01:41:33.395Z,90.7982
2023-04-09T01:42:33.774Z,90.8720
2023-04-09T01:43:34.253Z,91.1414
2023-04-09T01:44:34.644Z,90.8299
2023-04-09T01:45:35.006Z,90.9020
2023-04-09T01:46:35.523Z,90.8381
2023-04-09T01:47:36.485Z,90.4391
2023-04-09T01:48:36.838Z,90.4234
2023-04-09T01:49:37.220Z,90.3072
2023-04-09T01:50:37.630Z,90.1070
2023-04-09T01:51:37.991Z,90.5764
2023-04-09T01:52:38.386Z,90.7617
2023-04-09T01:53:38.726Z,90.5074
2023-04-09T01:54:39.098Z,90.6949
2023-04-09T01:55:39.487Z,90.6551
2023-04-09T01:56:39.860Z,90.7859
2023-04-09T01:57:40.315Z,90.7060
2023-04-09T01:58:40.726Z,90.9712
2023-04-09T01:59:41.182Z,90.9989
2023-04-09T02:00:41.517Z,91.2850
2023-04-09T02:01:42.157Z,91.4517
2023-04-09T02:02:42.769Z,91.4075
2023-04-09T02:03:43.543Z,91.6145
2023-04-09T02:04:43.916Z,91.5680
2023-04-09T02:05:44.275Z,91.3601
2023-04-09T02:06:44.659Z,91.5055
2023-04-09T02:07:45.150Z,91.8504
2023-04-09T02:08:45.629Z,91.8418
2023-04-09T02:09:46.015Z,91.6506
2023-04-09T02:10:46.406Z,91.7854
2023-04-09T02:11:46.853Z,91.6343
2023-04-09T02:12:47.271Z,91.6360
2023-04-09T02:13:47.660Z,91.4092
2023-04-09T02:14:48.029Z,91.4469
2023-04-09T02:15:48.519Z,91.4650
2023-04-09T02:16:48.972Z,91.6887
2023-04-09T02:17:49.609Z,91.2725
2023-04-09T02:18:50.895Z,91.3306
2023-04-09T02:19:51.810Z,91.3574
2023-04-09T02:20:52.210Z,91.1910
2023-04-09T02:21:52.621Z,91.0770
2023-04-09T02:22:52.943Z,91.1322
2023-04-09T02:23:53.347Z,91.4838
2023-04-09T02:24:53.777Z,91.7809
2023-04-09T02:25:54.188Z,91.7772
2023-04-09T02:26:54.603Z,91.6026
2023-04-09T02:27:54.985Z,91.5430
2023-04-09T02:28:55.343Z,91.2890
2023-04-09T02:29:55.735Z,91.4952
2023-04-09T02:30:56.176Z,91.6833
2023-04-09T02:31:56.623Z,91.8026
2023-04-09T02:32:57.058Z,91.7663
2023-04-09T02:33:57.471Z,91.8635
2023-04-09T02:34:57.927Z,91.8936
2023-04-09T02:35:58.413Z,91.6657
2023-04-09T02:36:58.799Z,91.7352
2023-04-09T02:37:59.207Z,91.8658
2023-04-09T02:38:59.612Z,91.5613
2023-04-09T02:39:59.983Z,91.7230
2023-04-09T02:41:00.390Z,91.7661
2023-04-09T02:42:00.761Z,91.6517
2023-04-09T02:43:01.217Z,91.6126
2023-04-09T02:44:01.622Z,91.7217
2023-04-09T02:45:02.014Z,91.5373
2023-04-09T02:46:02.566Z,91.4992
2023-04-09T02:47:02.999Z,91.0381
2023-04-09T02:48:03.472Z,91.1173
2023-04-09T02:49:03.884Z,90.9434
2023-04-09T02:50:04.325Z,91.0642
2023-04-09T02:51:04.703Z,91.0030
2023-04-09T02:52:05.334Z,91.4522
2023-04-09T02:53:05.752Z,91.3654
2023-04-09T02:54:06.194Z,91.2104
2023-04-09T02:55:06.575Z,90.9270
2023-04-09T02:56:06.972Z,91.3099
2023-04-09T02:57:07.353Z,91.1653
2023-04-09T02:58:07.779Z,91.1310
2023-04-09T02:59:08.202Z,90.9400
2023-04-09T03:00:08.625Z,90.8912
2023-04-09T03:01:09.084Z,90.6753
2023-04-09T03:02:09.679Z,90.7830
2023-04-09T03:03:10.714Z,90.9263
2023-04-09T03:04:11.759Z,90.8277
2023-04-09T03:05:12.161Z,91.1744
2023-04-09T03:06:12.549Z,91.2935
2023-04-09T03:07:12.911Z,91.1524
2023-04-09T03:08:13.419Z,91.1072
2023-04-09T03:09:13.840Z,90.8873
2023-04-09T03:10:14.348Z,91.0026
2023-04-09T03:11:14.753Z,90.9854
2023-04-09T03:12:15.153Z,91.5043
2023-04-09T03:13:15.625Z,91.6965
2023-04-09T03:14:16.029Z,91.4899
2023-04-09T03:15:17.269Z,91.3369
2023-04-09T03:16:17.753Z,91.5278
2023-04-09T03:17:18.174Z,91.5933
2023-04-09T03:18:18.612Z,91.7510
2023-04-09T03:19:19.038Z,91.8286
2023-04-09T03:20:19.441Z,92.0199
2023-04-09T03:21:19.844Z,92.2806
2023-04-09T03:22:20.269Z,92.4420
2023-04-09T03:23:20.754Z,92.4870
2023-04-09T03:24:21.153Z,92.5344
2023-04-09T03:25:21.569Z,92.4258
2023-04-09T03:26:21.961Z,92.3792
2023-04-09T03:27:22.358Z,92.2810
2023-04-09T03:28:22.855Z,92.2767
2023-04-09T03:29:23.293Z,92.1042
2023-04-09T03:30:23.670Z,92.1266
2023-04-09T03:31:24.218Z,92.3154
2023-04-09T03:32:24.711Z,92.1448
2023-04-09T03:33:25.153Z,92.0398
2023-04-09T03:34:25.576Z,92.3197
2023-04-09T03:35:25.962Z,92.3195
2023-04-09T03:36:26.372Z,92.2375
2023-04-09T03:37:26.855Z,92.0771
2023-04-09T03:38:27.212Z,91.8645
2023-04-09T03:39:27.631Z,91.8401
2023-04-09T03:40:28.114Z,92.2599
2023-04-09T03:41:28.516Z,92.2555
2023-04-09T03:42:28.940Z,92.1374
2023-04-09T03:43:29.356Z,92.1326
2023-04-09T03:44:29.824Z,92.2239
2023-04-09T03:45:30.239Z,92.1068
2023-04-09T03:46:30.912Z,92.1299
2023-04-09T03:47:31.418Z,92.1681
2023-04-09T03:48:31.865Z,92.0400
2023-04-09T03:49:32.265Z,92.0461
2023-04-09T03:50:32.674Z,92.0199
2023-04-09T03:51:33.066Z,92.2224
2023-04-09T03:52:33.584Z,92.2996
2023-04-09T03:53:33.957Z,92.2677
2023-04-09T03:54:34.414Z,92.1470
2023-04-09T03:55:34.841Z,92.1742
2023-04-09T03:56:35.241Z,91.8711
2023-04-09T03:57:35.634Z,91.7781
2023-04-09T03:58:36.101Z,91.9037
2023-04-09T03:59:36.494Z,91.8364
2023-04-09T04:00:36.896Z,91.8780
2023-04-09T04:01:37.388Z,92.0186
2023-04-09T04:02:38.295Z,92.2723
2023-04-09T04:03:39.248Z,92.2867
2023-04-09T04:04:39.789Z,92.6612
2023-04-09T04:05:40.159Z,92.8635
2023-04-09T04:06:40.591Z,92.7603
2023-04-09T04:07:40.948Z,92.6994
2023-04-09T04:08:41.408Z,92.5738
2023-04-09T04:09:41.836Z,92.5416
2023-04-09T04:10:42.387Z,92.5876
2023-04-09T04:11:42.724Z,92.5740
2023-04-09T04:12:43.143Z,92.4626
2023-04-09T04:13:43.589Z,92.4656
2023-04-09T04:14:43.967Z,92.3726
2023-04-09T04:15:44.360Z,92.2793
2023-04-09T04:16:44.849Z,92.2955
2023-04-09T04:17:45.408Z,92.2141
2023-04-09T04:18:45.853Z,92.4142
2023-04-09T04:19:46.326Z,92.4713
2023-04-09T04:20:46.766Z,92.4360
2023-04-09T04:21:47.246Z,92.5721
2023-04-09T04:22:47.657Z,92.5016
2023-04-09T04:23:48.176Z,92.5689
2023-04-09T04:24:48.617Z,92.7098
2023-04-09T04:25:49.088Z,92.8311
2023-04-09T04:26:49.528Z,92.7472
2023-04-09T04:27:49.976Z,92.6548
2023-04-09T04:28:51.036Z,92.6145
2023-04-09T04:29:51.818Z,92.6038
2023-04-09T04:30:52.240Z,92.6297
2023-04-09T04:31:52.827Z,92.7573
2023-04-09T04:32:53.377Z,92.9156
2023-04-09T04:33:53.808Z,92.9936
2023-04-09T04:34:54.275Z,92.9329
2023-04-09T04:35:54.800Z,92.8749
2023-04-09T04:36:55.229Z,92.7011
2023-04-09T04:37:55.724Z,92.3647
2023-04-09T04:38:56.163Z,92.1838
2023-04-09T04:39:56.610Z,92.1617
2023-04-09T04:40:57.165Z,92.0446
2023-04-09T04:41:57.598Z,92.2107
2023-04-09T04:42:57.988Z,92.4098
2023-04-09T04:43:58.474Z,92.4556
2023-04-09T04:44:58.897Z,92.5053
2023-04-09T04:45:59.510Z,92.2515
2023-04-09T04:46:59.942Z,91.8135
2023-04-09T04:48:00.513Z,91.8743
2023-04-09T04:49:00.981Z,91.9578
2023-04-09T04:50:01.516Z,91.7864
2023-04-09T04:51:01.985Z,91.8744
2023-04-09T04:52:02.438Z,91.9082
2023-04-09T04:53:02.878Z,91.7772
2023-04-09T04:54:03.408Z,91.8206
2023-04-09T04:55:03.914Z,91.8108
2023-04-09T04:56:04.333Z,91.8447
2023-04-09T04:57:04.838Z,91.5787
2023-04-09T04:58:05.272Z,91.4862
2023-04-09T04:59:05.815Z,91.6135
2023-04-09T05:00:06.221Z,91.8009
2023-04-09T05:01:06.702Z,91.7021
2023-04-09T05:02:07.240Z,91.3828
2023-04-09T05:03:07.793Z,91.1032
2023-04-09T05:04:08.311Z,90.9569
2023-04-09T05:05:08.734Z,90.9008
2023-04-09T05:06:09.195Z,91.2228
2023-04-09T05:07:09.692Z,91.5405
2023-04-09T05:08:10.100Z,91.5311
2023-04-09T05:09:10.580Z,91.3609
2023-04-09T05:10:11.081Z,91.6045
2023-04-09T05:11:11.545Z,91.7834
2023-04-09T05:12:12.024Z,91.6282
2023-04-09T05:13:12.483Z,91.4760
2023-04-09T05:14:12.994Z,91.1844
2023-04-09T05:15:13.433Z,91.3554
2023-04-09T05:16:13.902Z,91.5669
2023-04-09T05:17:14.300Z,91.4253
2023-04-09T05:18:14.739Z,91.1874
2023-04-09T05:19:15.184Z,91.0110
2023-04-09T05:20:15.620Z,91.1834
2023-04-09T05:21:16.066Z,90.9388
2023-04-09T05:22:16.460Z,91.0302
2023-04-09T05:23:16.971Z,91.3254
2023-04-09T05:24:17.454Z,91.3808
2023-04-09T05:25:17.915Z,91.4121
2023-04-09T05:26:18.330Z,91.3042
2023-04-09T05:27:18.794Z,91.0646
2023-04-09T05:28:19.239Z,91.0272
2023-04-09T05:29:19.769Z,91.3754
2023-04-09T05:30:20.267Z,91.6744
2023-04-09T05:31:20.712Z,91.5115
2023-04-09T05:32:21.310Z,91.3099
2023-04-09T05:33:21.828Z,91.4655
2023-04-09T05:34:22.305Z,91.7249
2023-04-09T05:35:22.775Z,91.6355
2023-04-09T05:36:23.273Z,91.6511
2023-04-09T05:37:23.715Z,91.6492
2023-04-09T05:38:24.183Z,91.6343
2023-04-09T05:39:24.676Z,91.7749
2023-04-09T05:40:25.181Z,91.5064
2023-04-09T05:41:25.577Z,91.3497
2023-04-09T05:42:26.049Z,91.3620
2023-04-09T05:43:26.453Z,91.5511
2023-04-09T05:44:27.035Z,91.5459
2023-04-09T05:45:27.451Z,91.6752
2023-04-09T05:46:28.035Z,91.8330
2023-04-09T05:47:28.478Z,91.7598
2023-04-09T05:48:28.882Z,91.7179
2023-04-09T05:49:29.317Z,91.7960
2023-04-09T05:50:31.851Z,91.5946
2023-04-09T05:51:30.259Z,91.5241
2023-04-09T05:52:30.713Z,91.5225
2023-04-09T05:53:31.200Z,91.2261
2023-04-09T05:54:31.702Z,91.0826
2023-04-09T05:55:32.147Z,91.0029
2023-04-09T05:56:32.683Z,91.1513
2023-04-09T05:57:33.126Z,91.2394
2023-04-09T05:58:33.572Z,91.1656
2023-04-09T05:59:34.033Z,91.1160
2023-04-09T06:00:34.483Z,90.9828
2023-04-09T06:01:34.951Z,91.1209
2023-04-09T06:02:35.487Z,90.9664
2023-04-09T06:03:36.225Z,90.9829
2023-04-09T06:04:36.768Z,91.1176
2023-04-09T06:05:37.168Z,91.0265
2023-04-09T06:06:37.613Z,91.0830
2023-04-09T06:07:38.114Z,91.2476
2023-04-09T06:08:38.528Z,91.0217
2023-04-09T06:09:38.938Z,90.6544
2023-04-09T06:10:41.688Z,90.7037
2023-04-09T06:11:39.797Z,90.5920
2023-04-09T06:12:41.356Z,90.5621
2023-04-09T06:13:41.847Z,90.7740
2023-04-09T06:14:42.346Z,90.8428
2023-04-09T06:15:42.823Z,90.7973
2023-04-09T06:16:43.266Z,90.8581
2023-04-09T06:17:43.865Z,90.6305
2023-04-09T06:18:44.265Z,90.8241
2023-04-09T06:19:44.768Z,90.6371
2023-04-09T06:20:45.187Z,90.3282
2023-04-09T06:21:45.632Z,89.9725
2023-04-09T06:22:46.392Z,89.6619
2023-04-09T06:23:46.846Z,89.2977
2023-04-09T06:24:47.347Z,89.3185
2023-04-09T06:25:47.823Z,89.7558
2023-04-09T06:26:48.318Z,89.3700
2023-04-09T06:27:48.747Z,89.1490
2023-04-09T06:28:49.196Z,89.1807
2023-04-09T06:29:49.685Z,89.2181
2023-04-09T06:30:50.240Z,88.6870
2023-04-09T06:31:50.754Z,88.6480
2023-04-09T06:32:55.820Z,88.3578
2023-04-09T06:33:52.644Z,88.1531
2023-04-09T06:34:53.575Z,87.7250
2023-04-09T06:35:54.028Z,88.1947
2023-04-09T06:36:54.533Z,88.3986
2023-04-09T06:37:55.074Z,88.5320
2023-04-09T06:38:55.605Z,88.5842
2023-04-09T06:40:01.965Z,87.9377
2023-04-09T06:40:57.802Z,87.9360
2023-04-09T06:41:58.167Z,87.4325
2023-04-09T06:42:58.631Z,87.3203
2023-04-09T06:43:59.046Z,87.8428
2023-04-09T06:44:59.503Z,87.3452
2023-04-09T06:45:59.954Z,87.3450
2023-04-09T06:47:00.361Z,87.1488
2023-04-09T06:48:00.977Z,86.7365
2023-04-09T06:49:01.382Z,86.3894
2023-04-09T06:50:01.858Z,86.6461
2023-04-09T06:51:02.485Z,87.1972
2023-04-09T06:52:03.098Z,86.6467
2023-04-09T06:53:03.461Z,86.8176
2023-04-09T06:54:04.010Z,86.6752
2023-04-09T06:55:04.473Z,86.5026
2023-04-09T06:56:04.904Z,85.8949
2023-04-09T06:57:05.412Z,86.8482
2023-04-09T06:58:05.843Z,86.6336
2023-04-09T06:59:06.221Z,86.4000
2023-04-09T07:00:06.757Z,86.4611
2023-04-09T07:01:07.226Z,86.4258
2023-04-09T07:02:07.898Z,86.5866
2023-04-09T07:03:08.644Z,86.3513
2023-04-09T07:04:09.243Z,86.2409
2023-04-09T07:05:09.733Z,86.0172
2023-04-09T07:06:10.143Z,85.9380
2023-04-09T07:07:10.780Z,86.1929
2023-04-09T07:08:11.139Z,85.1396
2023-04-09T07:09:11.519Z,85.0820
2023-04-09T07:10:11.955Z,84.7926
2023-04-09T07:11:12.363Z,84.6076
2023-04-09T07:12:12.770Z,85.0169
2023-04-09T07:13:13.213Z,85.2533
2023-04-09T07:14:13.610Z,84.8763
2023-04-09T07:15:14.951Z,84.6767
2023-04-09T07:16:15.513Z,84.9364
2023-04-09T07:17:15.870Z,84.7688
2023-04-09T07:18:16.279Z,84.7118
2023-04-09T07:19:16.708Z,84.5101
2023-04-09T07:20:17.151Z,84.2738
2023-04-09T07:21:17.527Z,83.7097
2023-04-09T07:22:17.880Z,83.6396
2023-04-09T07:23:18.364Z,83.4776
2023-04-09T07:24:18.797Z,83.7468
2023-04-09T07:25:19.190Z,84.4236
2023-04-09T07:26:19.607Z,83.9806
2023-04-09T07:27:20.034Z,83.8705
2023-04-09T07:28:21.402Z,83.5166
2023-04-09T07:29:21.794Z,83.5056
2023-04-09T07:30:22.166Z,83.1580
2023-04-09T07:31:22.595Z,83.2604
2023-04-09T07:32:23.013Z,82.2901
2023-04-09T07:33:23.401Z,82.0500
2023-04-09T07:34:23.764Z,82.3173
2023-04-09T07:35:24.175Z,82.4491
2023-04-09T07:36:24.766Z,81.9571
2023-04-09T07:37:25.186Z,81.2667
2023-04-09T07:38:25.551Z,82.1912
2023-04-09T07:39:26.048Z,82.0366
2023-04-09T07:40:26.643Z,81.5159
2023-04-09T07:41:27.014Z,81.3402
2023-04-09T07:42:27.952Z,81.2683
2023-04-09T07:43:28.332Z,81.5360
2023-04-09T07:44:28.660Z,81.0633
2023-04-09T07:45:29.367Z,82.0787
2023-04-09T07:46:29.904Z,82.0878
2023-04-09T07:47:30.293Z,81.2316
2023-04-09T07:48:31.659Z,81.7987
2023-04-09T07:49:32.099Z,82.2789
2023-04-09T07:50:32.630Z,83.1143
2023-04-09T07:51:33.019Z,82.6636
2023-04-09T07:52:33.411Z,83.3660
2023-04-09T07:53:33.778Z,83.1610
2023-04-09T07:54:34.139Z,83.0523
2023-04-09T07:55:34.560Z,82.3064
2023-04-09T07:56:34.961Z,82.2889
2023-04-09T07:57:35.348Z,81.7101
2023-04-09T07:58:35.922Z,81.1324
2023-04-09T07:59:36.399Z,81.5996
2023-04-09T08:00:36.985Z,81.9248
2023-04-09T08:01:37.532Z,80.7962
2023-04-09T08:02:38.568Z,81.5651
2023-04-09T08:03:39.732Z,81.8837
2023-04-09T08:04:40.353Z,82.7888
2023-04-09T08:05:40.760Z,82.5619
2023-04-09T08:06:41.273Z,82.4511
2023-04-09T08:07:41.684Z,82.4779
2023-04-09T08:08:42.082Z,81.4313
2023-04-09T08:09:42.491Z,81.5596
2023-04-09T08:10:42.960Z,81.3605
2023-04-09T08:11:43.342Z,82.1151
2023-04-09T08:12:43.819Z,81.8637
2023-04-09T08:13:44.260Z,81.6374
2023-04-09T08:14:44.702Z,82.1266
2023-04-09T08:15:45.154Z,82.5490
2023-04-09T08:16:45.653Z,82.3427
2023-04-09T08:17:46.167Z,82.4807
2023-04-09T08:18:46.570Z,81.8483
2023-04-09T08:19:47.085Z,79.6735
2023-04-09T08:20:47.460Z,79.6107
2023-04-09T08:21:47.870Z,79.0401
2023-04-09T08:22:48.185Z,80.0073
2023-04-09T08:23:48.628Z,80.1678
2023-04-09T08:24:48.992Z,79.7889
2023-04-09T08:25:49.370Z,79.6910
2023-04-09T08:26:49.745Z,78.9796
2023-04-09T08:27:50.108Z,78.5267
2023-04-09T08:28:50.817Z,79.3105
2023-04-09T08:29:51.370Z,79.5673
2023-04-09T08:30:51.841Z,79.9301
2023-04-09T08:31:52.235Z,79.6225
2023-04-09T08:32:52.628Z,79.8900
2023-04-09T08:33:52.971Z,80.6256
2023-04-09T08:34:53.370Z,80.3172
2023-04-09T08:35:53.830Z,80.1002
2023-04-09T08:36:54.300Z,80.1156
2023-04-09T08:37:54.658Z,80.5543
2023-04-09T08:38:56.155Z,80.2494
2023-04-09T08:39:56.891Z,79.6354
2023-04-09T08:40:57.370Z,79.2556
2023-04-09T08:41:57.830Z,79.3387
2023-04-09T08:42:58.213Z,79.2865
2023-04-09T08:44:00.367Z,78.8165
2023-04-09T08:45:00.771Z,79.2671
2023-04-09T08:46:01.253Z,78.7759
2023-04-09T08:47:01.641Z,79.1112
2023-04-09T08:48:02.283Z,79.3558
2023-04-09T08:49:02.626Z,79.2951
2023-04-09T08:50:03.022Z,78.8238
2023-04-09T08:51:03.419Z,78.4778
2023-04-09T08:52:03.781Z,78.1701
2023-04-09T08:53:04.470Z,77.6267
2023-04-09T08:54:05.895Z,77.1474
2023-04-09T08:55:06.384Z,76.5587
2023-04-09T08:56:06.743Z,76.7156
2023-04-09T08:57:07.193Z,76.9589
2023-04-09T08:58:07.671Z,76.8088
2023-04-09T08:59:08.099Z,76.2783
2023-04-09T09:00:08.562Z,76.8109
2023-04-09T09:01:09.045Z,76.7533
2023-04-09T09:02:09.625Z,76.5560
2023-04-09T09:03:10.481Z,76.7745
2023-04-09T09:04:11.361Z,76.2651
2023-04-09T09:05:11.791Z,75.9066
2023-04-09T09:06:12.246Z,75.7829
2023-04-09T09:07:12.710Z,76.0959
2023-04-09T09:08:13.186Z,75.9658
2023-04-09T09:09:13.622Z,76.4167
2023-04-09T09:10:14.061Z,76.9089
2023-04-09T09:11:14.551Z,76.2436
2023-04-09T09:12:15.026Z,75.3981
2023-04-09T09:13:15.475Z,75.9858
2023-04-09T09:14:16.090Z,76.0193
2023-04-09T09:15:16.546Z,75.8979
2023-04-09T09:16:17.070Z,76.0832
2023-04-09T09:17:17.643Z,76.0169
2023-04-09T09:18:18.085Z,75.6534
2023-04-09T09:19:18.528Z,74.3411
2023-04-09T09:20:18.953Z,74.8091
2023-04-09T09:21:19.554Z,74.8968
2023-04-09T09:22:20.016Z,75.1990
2023-04-09T09:23:20.562Z,74.9314
2023-04-09T09:24:21.037Z,75.1351
2023-04-09T09:25:21.516Z,74.6487
2023-04-09T09:26:21.967Z,74.6864
2023-04-09T09:27:22.428Z,74.9088
2023-04-09T09:28:22.882Z,74.8545
2023-04-09T09:29:23.343Z,74.9623
2023-04-09T09:30:23.818Z,74.8336
2023-04-09T09:31:24.520Z,73.9814
2023-04-09T09:32:25.108Z,74.3773
2023-04-09T09:33:26.597Z,74.1084
2023-04-09T09:34:27.043Z,73.7888
2023-04-09T09:35:27.484Z,73.0757
2023-04-09T09:36:27.914Z,72.7011
2023-04-09T09:37:28.415Z,72.6376
2023-04-09T09:38:28.840Z,72.1602
2023-04-09T09:39:29.327Z,72.9518
2023-04-09T09:40:29.769Z,72.6380
2023-04-09T09:41:30.215Z,71.7605
2023-04-09T09:42:30.671Z,72.1072
2023-04-09T09:43:31.113Z,72.0846
2023-04-09T09:44:31.922Z,71.2914
2023-04-09T09:45:32.673Z,70.7133
2023-04-09T09:46:33.420Z,70.5011
2023-04-09T09:47:33.921Z,71.2081
2023-04-09T09:48:34.314Z,70.4197
2023-04-09T09:49:34.753Z,71.1498
2023-04-09T09:50:35.239Z,70.2543
2023-04-09T09:51:35.677Z,69.6120
2023-04-09T09:52:36.074Z,69.9728
2023-04-09T09:53:36.514Z,70.3702
2023-04-09T09:54:36.965Z,71.0316
2023-04-09T09:55:37.413Z,70.0687
2023-04-09T09:56:37.908Z,70.2812
2023-04-09T09:57:38.266Z,70.9065
2023-04-09T09:58:38.709Z,70.2350
2023-04-09T09:59:39.150Z,70.1205
2023-04-09T10:00:39.580Z,69.5431
2023-04-09T10:01:40.104Z,70.2672
2023-04-09T10:02:40.871Z,69.0338
2023-04-09T10:03:41.314Z,69.0565
2023-04-09T10:04:41.821Z,68.8271
2023-04-09T10:05:42.300Z,68.9529
2023-04-09T10:06:42.831Z,69.2407
2023-04-09T10:07:43.238Z,69.5739
2023-04-09T10:08:43.809Z,70.0141
2023-04-09T10:09:44.420Z,68.3857
2023-04-09T10:10:44.878Z,69.3623
2023-04-09T10:11:45.289Z,68.8799
2023-04-09T10:12:45.654Z,68.1197
2023-04-09T10:13:46.123Z,67.6554
2023-04-09T10:14:46.611Z,67.6699
2023-04-09T10:15:47.105Z,68.3649
2023-04-09T10:16:47.525Z,68.9917
2023-04-09T10:17:48.032Z,69.0135
2023-04-09T10:18:48.540Z,69.1073
2023-04-09T10:19:48.957Z,69.4700
2023-04-09T10:20:49.495Z,67.7903
2023-04-09T10:21:49.867Z,68.9171
2023-04-09T10:22:50.292Z,67.9115
2023-04-09T10:23:50.807Z,68.3052
2023-04-09T10:24:51.181Z,68.5000
2023-04-09T10:25:51.553Z,67.4765
2023-04-09T10:26:51.975Z,67.7634
2023-04-09T10:27:52.410Z,68.1905
2023-04-09T10:28:53.044Z,68.4156
2023-04-09T10:29:53.513Z,67.0588
2023-04-09T10:30:54.049Z,66.3574
2023-04-09T10:31:54.458Z,66.4688
2023-04-09T10:32:55.058Z,66.4042
2023-04-09T10:33:55.442Z,65.6295
2023-04-09T10:34:55.857Z,65.4891
2023-04-09T10:35:56.302Z,65.7550
2023-04-09T10:36:56.689Z,65.4429
2023-04-09T10:37:57.149Z,65.7268
2023-04-09T10:38:57.636Z,65.5740
2023-04-09T10:39:58.256Z,64.8883
2023-04-09T10:40:58.708Z,65.0489
2023-04-09T10:41:59.195Z,66.2096
2023-04-09T10:42:59.674Z,65.3022
2023-04-09T10:44:00.063Z,65.2550
2023-04-09T10:45:00.481Z,65.1606
2023-04-09T10:46:00.942Z,64.5153
2023-04-09T10:47:01.414Z,64.3432
2023-04-09T10:48:01.915Z,65.0979
2023-04-09T10:49:02.396Z,65.1311
2023-04-09T10:50:02.888Z,63.0803
2023-04-09T10:51:03.363Z,64.0811
2023-04-09T10:52:03.789Z,63.3867
2023-04-09T10:53:04.185Z,64.4620
2023-04-09T10:54:04.632Z,63.8555
2023-04-09T10:55:05.129Z,62.2650
2023-04-09T10:56:05.576Z,62.2244
2023-04-09T10:57:05.973Z,61.9907
2023-04-09T10:58:06.624Z,61.2768
2023-04-09T10:59:07.535Z,62.0574
2023-04-09T11:00:08.004Z,62.6660
2023-04-09T11:01:08.370Z,63.5231
2023-04-09T11:02:09.102Z,63.0514
2023-04-09T11:03:10.077Z,63.8590
2023-04-09T11:04:11.158Z,61.3471
2023-04-09T11:05:11.672Z,62.9789
2023-04-09T11:06:12.069Z,62.6362
2023-04-09T11:07:12.544Z,63.8149
2023-04-09T11:08:12.882Z,63.4666
2023-04-09T11:09:13.341Z,61.3517
2023-04-09T11:10:13.749Z,62.3117
2023-04-09T11:11:14.236Z,63.7672
2023-04-09T11:12:14.721Z,62.3150
2023-04-09T11:13:15.112Z,61.0023
2023-04-09T11:14:15.656Z,60.4203
2023-04-09T11:15:16.054Z,61.5835
2023-04-09T11:16:24.095Z,60.3834
2023-04-09T11:17:16.844Z,58.7658
2023-04-09T11:18:17.343Z,59.5629
2023-04-09T11:19:17.794Z,60.1553
2023-04-09T11:20:18.155Z,59.8492
2023-04-09T11:21:18.673Z,57.5073
2023-04-09T11:22:19.017Z,57.2500
2023-04-09T11:23:19.370Z,58.7683
2023-04-09T11:24:19.794Z,58.8471
2023-04-09T11:25:20.182Z,58.4173
2023-04-09T11:26:20.641Z,57.8893
2023-04-09T11:27:21.087Z,58.0691
2023-04-09T11:28:21.556Z,58.5193
2023-04-09T11:29:21.866Z,57.1285
2023-04-09T11:30:22.241Z,58.6262
2023-04-09T11:31:22.633Z,59.3621
2023-04-09T11:32:23.200Z,59.8300
2023-04-09T11:33:23.506Z,58.4838
2023-04-09T11:34:23.857Z,58.1673
2023-04-09T11:35:24.197Z,58.3929
2023-04-09T11:36:24.575Z,56.8228
2023-04-09T11:37:25.013Z,56.4721
2023-04-09T11:38:25.377Z,57.0227
2023-04-09T11:39:25.764Z,58.1606
2023-04-09T11:40:26.073Z,56.5127
2023-04-09T11:41:26.523Z,55.6757
2023-04-09T11:42:26.901Z,57.0737
2023-04-09T11:43:27.228Z,57.5689
2023-04-09T11:44:27.555Z,57.2200
2023-04-09T11:45:27.893Z,55.9731
2023-04-09T11:46:28.256Z,57.9169
2023-04-09T11:47:28.627Z,56.7173
2023-04-09T11:48:28.940Z,55.4528
2023-04-09T11:49:29.369Z,56.2471
2023-04-09T11:50:29.707Z,53.1070
2023-04-09T11:51:30.065Z,51.5725
2023-04-09T11:52:30.372Z,50.1136
2023-04-09T11:53:30.729Z,46.2506
2023-04-09T11:54:30.988Z,46.0709
2023-04-09T11:55:31.343Z,46.5435
2023-04-09T11:56:31.598Z,43.0927
2023-04-09T11:57:31.828Z,43.1770
2023-04-09T11:58:32.130Z,43.0159
2023-04-09T11:59:32.507Z,42.8834
2023-04-09T12:00:32.763Z,38.1674
2023-04-09T12:01:33.111Z,40.7291
2023-04-09T12:02:33.782Z,42.6692
2023-04-09T12:03:35.025Z,45.4487
2023-04-09T12:04:35.658Z,47.0598
2023-04-09T12:05:35.866Z,46.7937
2023-04-09T12:06:36.048Z,43.6777
2023-04-09T12:07:36.261Z,42.8460
2023-04-09T12:08:36.407Z,46.0075
2023-04-09T12:09:36.652Z,45.0365
2023-04-09T12:10:36.799Z,43.9419
2023-04-09T12:11:36.990Z,44.5104